Time;durP1;ratioP1;P1;durP2;ratioP2;P2;SDS_P1;SDS_P2;PMS_P1;PMS_P2;Temp;Humidity;BMP_temperature;BMP_pressure;BME280_temperature;BME280_humidity;BME280_pressure;Samples;Min_cycle;Max_cycle;Signal;HPM_P1;HPM_P2
2022/01/14 00:02:24;;;;;;;12.80;6.60;;;;;;;-148.16;100.00;58328.31;5093684;28;20052;-68
2022/01/14 00:05:10;;;;;;;13.75;5.55;;;;;;;-148.16;100.00;58328.31;5093691;28;20052;-68
2022/01/14 00:07:55;;;;;;;12.55;5.35;;;;;;;-148.16;100.00;58328.31;5093979;28;20052;-67
2022/01/14 00:10:48;;;;;;;14.80;5.43;;;;;;;-148.16;100.00;58328.31;5093410;28;20040;-68
2022/01/14 00:13:45;;;;;;;13.25;5.07;;;;;;;-148.16;100.00;58328.31;5093273;28;20052;-68
2022/01/14 00:16:32;;;;;;;12.95;5.35;;;;;;;-148.16;100.00;58328.31;5095843;28;20048;-68
2022/01/14 00:19:18;;;;;;;12.45;4.72;;;;;;;-148.16;100.00;58328.31;5093041;28;20047;-67
2022/01/14 00:22:09;;;;;;;10.15;4.57;;;;;;;-148.16;100.00;58328.31;5094030;28;20044;-66
2022/01/14 00:33:49;;;;;;;10.93;4.68;;;;;;;-148.16;100.00;58328.31;5092931;28;20052;-67
2022/01/14 00:36:35;;;;;;;14.18;4.93;;;;;;;-148.16;100.00;58328.31;5098429;28;20044;-67
2022/01/14 00:39:21;;;;;;;13.98;5.88;;;;;;;-148.16;100.00;58328.31;5092921;28;20052;-67
2022/01/14 00:42:09;;;;;;;11.60;4.57;;;;;;;-148.16;100.00;58328.31;5092122;28;20044;-68
2022/01/14 00:44:55;;;;;;;11.77;5.43;;;;;;;-148.16;100.00;58328.31;5092225;28;20048;-68
2022/01/14 00:47:41;;;;;;;14.20;6.47;;;;;;;-148.16;100.00;58328.31;5092118;28;20048;-67
2022/01/14 00:50:27;;;;;;;11.95;4.93;;;;;;;-148.16;100.00;58328.31;5097900;28;20044;-67
2022/01/14 00:53:12;;;;;;;14.98;6.43;;;;;;;-148.16;100.00;58328.31;5092909;28;20044;-66
2022/01/14 00:56:07;;;;;;;14.65;5.25;;;;;;;-148.16;100.00;58328.31;5092609;28;20048;-67
2022/01/14 01:02:00;;;;;;;11.85;5.03;;;;;;;-148.16;100.00;58328.31;5097748;28;20052;-67
2022/01/14 01:04:45;;;;;;;10.95;4.35;;;;;;;-148.16;100.00;58328.31;5091601;28;20044;-67
2022/01/14 01:07:31;;;;;;;11.90;5.53;;;;;;;-148.16;100.00;58328.31;5092864;28;20055;-67
2022/01/14 01:10:18;;;;;;;11.75;4.65;;;;;;;-148.16;100.00;58328.31;5092661;28;20047;-67
2022/01/14 01:13:17;;;;;;;11.90;4.95;;;;;;;-148.16;100.00;58328.31;5093150;28;20040;-67
2022/01/14 01:16:03;;;;;;;11.50;5.43;;;;;;;-148.16;100.00;58328.31;5091838;28;20044;-67
2022/01/14 01:18:49;;;;;;;12.35;5.10;;;;;;;-148.16;100.00;58328.31;5098404;28;20147;-68
2022/01/14 01:21:35;;;;;;;12.98;5.65;;;;;;;-148.16;100.00;58328.31;5097057;28;20048;-67
2022/01/14 01:24:21;;;;;;;11.43;5.05;;;;;;;-148.16;100.00;58328.31;5092404;28;20219;-67
2022/01/14 01:27:09;;;;;;;13.65;5.22;;;;;;;-148.16;100.00;58328.31;5092232;28;20044;-67
2022/01/14 01:30:11;;;;;;;12.45;5.30;;;;;;;-148.16;100.00;58328.31;5092359;28;20040;-67
2022/01/14 01:33:01;;;;;;;12.68;5.10;;;;;;;-148.16;100.00;58328.31;5086607;28;20040;-66
2022/01/14 01:35:48;;;;;;;12.13;4.85;;;;;;;-148.16;100.00;58328.31;5075042;28;20399;-67
2022/01/14 01:38:34;;;;;;;10.52;4.40;;;;;;;-148.16;100.00;58328.31;5097951;28;20040;-67
2022/01/14 01:41:21;;;;;;;12.40;5.57;;;;;;;-148.16;100.00;58328.31;5092083;28;20044;-67
2022/01/14 01:44:07;;;;;;;12.27;4.28;;;;;;;-148.16;100.00;58328.31;5094207;28;20044;-67
2022/01/14 01:46:55;;;;;;;10.68;3.97;;;;;;;-148.16;100.00;58328.31;5096294;28;20047;-67
2022/01/14 01:49:41;;;;;;;10.70;4.13;;;;;;;-148.16;100.00;58328.31;5095960;28;20040;-66
2022/01/14 01:52:28;;;;;;;11.02;4.60;;;;;;;-148.16;100.00;58328.31;5096116;28;20040;-66
2022/01/14 01:55:15;;;;;;;12.55;4.78;;;;;;;-148.16;100.00;58328.31;5096278;28;20044;-67
2022/01/14 01:58:01;;;;;;;11.82;4.32;;;;;;;-148.16;100.00;58328.31;5096021;28;20044;-67
2022/01/14 02:00:46;;;;;;;9.23;3.72;;;;;;;-148.16;100.00;58328.31;5080452;28;20479;-67
2022/01/14 02:03:34;;;;;;;9.13;3.92;;;;;;;-148.16;100.00;58328.31;5095912;28;20500;-67
2022/01/14 02:06:22;;;;;;;8.80;3.75;;;;;;;-148.16;100.00;58328.31;5096135;28;20048;-66
2022/01/14 02:09:08;;;;;;;8.43;4.07;;;;;;;-148.16;100.00;58328.31;5095753;28;20487;-67
2022/01/14 02:11:54;;;;;;;10.07;4.55;;;;;;;-148.16;100.00;58328.31;5095779;28;20040;-67
2022/01/14 02:14:55;;;;;;;9.20;3.72;;;;;;;-148.16;100.00;58328.31;5075550;28;20488;-67
2022/01/14 02:18:24;;;;;;;9.95;3.95;;;;;;;-148.16;100.00;58328.31;5075278;28;20057;-67
2022/01/14 02:27:15;;;;;;;12.32;4.63;;;;;;;-148.16;100.00;58328.31;5064882;28;20045;-67
2022/01/14 02:30:01;;;;;;;11.15;4.28;;;;;;;-148.16;100.00;58328.31;5074732;28;20044;-67
2022/01/14 02:32:47;;;;;;;10.77;4.38;;;;;;;-148.16;100.00;58328.31;5075469;28;20045;-67
2022/01/14 02:35:33;;;;;;;8.77;4.05;;;;;;;-148.16;100.00;58328.31;5075004;28;20048;-67
2022/01/14 02:38:20;;;;;;;10.18;4.03;;;;;;;-148.16;100.00;58328.31;5075087;28;20044;-67
2022/01/14 02:41:05;;;;;;;11.73;3.67;;;;;;;-148.16;100.00;58328.31;5074513;28;20045;-67
2022/01/14 02:43:51;;;;;;;9.05;3.95;;;;;;;-148.16;100.00;58328.31;5051865;28;20488;-67
2022/01/14 02:46:49;;;;;;;8.02;3.97;;;;;;;-148.16;100.00;58328.31;5080851;28;20044;-66
2022/01/14 02:49:36;;;;;;;11.93;4.07;;;;;;;-148.16;100.00;58328.31;5074913;28;20049;-67
2022/01/14 02:52:40;;;;;;;10.40;4.07;;;;;;;-148.16;100.00;58328.31;5074573;28;20036;-67
2022/01/14 02:55:31;;;;;;;11.48;3.95;;;;;;;-148.16;100.00;58328.31;5074056;28;20048;-67
2022/01/14 02:58:17;;;;;;;14.77;4.82;;;;;;;-148.16;100.00;58328.31;5074845;28;20036;-66
2022/01/14 03:01:12;;;;;;;10.35;4.22;;;;;;;-148.16;100.00;58328.31;5074112;28;20407;-67
2022/01/14 03:04:01;;;;;;;14.65;5.82;;;;;;;-148.16;100.00;58328.31;5065596;28;20408;-67
2022/01/14 03:06:48;;;;;;;11.38;4.57;;;;;;;-148.16;100.00;58328.31;5074401;28;20049;-67
2022/01/14 03:09:35;;;;;;;10.13;4.30;;;;;;;-148.16;100.00;58328.31;5074538;28;20506;-69
2022/01/14 03:12:21;;;;;;;10.38;4.38;;;;;;;-148.16;100.00;58328.31;5074289;28;20044;-67
2022/01/14 03:15:07;;;;;;;10.27;4.90;;;;;;;-148.16;100.00;58328.31;5059380;28;20404;-68
2022/01/14 03:17:53;;;;;;;9.32;3.67;;;;;;;-148.16;100.00;58328.31;5074357;28;20044;-67
2022/01/14 03:20:50;;;;;;;13.55;5.15;;;;;;;-148.16;100.00;58328.31;5074253;28;20040;-67
2022/01/14 03:24:17;;;;;;;10.52;4.40;;;;;;;-148.16;100.00;58328.31;5074276;28;20052;-67
2022/01/14 03:27:03;;;;;;;13.02;4.35;;;;;;;-148.16;100.00;58328.31;5074448;28;20044;-66
2022/01/14 03:29:50;;;;;;;13.98;4.90;;;;;;;-148.16;100.00;58328.31;5058838;28;20044;-67
2022/01/14 03:32:35;;;;;;;10.45;4.32;;;;;;;-148.16;100.00;58328.31;5064491;28;20048;-67
2022/01/14 03:35:21;;;;;;;11.20;5.13;;;;;;;-148.16;100.00;58328.31;5073874;28;20057;-67
2022/01/14 03:38:07;;;;;;;12.80;5.43;;;;;;;-148.16;100.00;58328.31;5074329;28;20052;-67
2022/01/14 03:40:52;;;;;;;15.07;4.82;;;;;;;-148.16;100.00;58328.31;5073825;28;20040;-66
2022/01/14 03:43:40;;;;;;;13.50;4.90;;;;;;;-148.16;100.00;58328.31;5083828;28;20048;-67
2022/01/14 03:46:26;;;;;;;11.73;4.40;;;;;;;-148.16;100.00;58328.31;5084715;28;20036;-67
2022/01/14 03:49:12;;;;;;;18.50;6.30;;;;;;;-148.16;100.00;58328.31;5100419;28;20080;-68
2022/01/14 03:51:59;;;;;;;13.52;5.05;;;;;;;-148.16;100.00;58328.31;5094112;28;20048;-68
2022/01/14 03:54:45;;;;;;;15.57;5.50;;;;;;;-148.16;100.00;58328.31;5093318;28;20047;-68
2022/01/14 03:57:30;;;;;;;13.57;4.70;;;;;;;-148.16;100.00;58328.31;5093812;28;20048;-68
2022/01/14 04:00:18;;;;;;;14.95;5.80;;;;;;;-148.16;100.00;58328.31;5093703;28;20487;-68
2022/01/14 04:03:06;;;;;;;17.75;5.85;;;;;;;-148.16;100.00;58328.31;5090376;28;20052;-68
2022/01/14 04:05:51;;;;;;;14.85;5.82;;;;;;;-148.16;100.00;58328.31;5079923;28;20051;-68
2022/01/14 04:08:38;;;;;;;9.65;4.10;;;;;;;-148.16;100.00;58328.31;5072605;28;20411;-68
2022/01/14 04:11:23;;;;;;;13.10;4.68;;;;;;;-148.16;100.00;58328.31;5058282;28;20045;-68
2022/01/14 04:17:11;;;;;;;13.57;5.90;;;;;;;-148.16;100.00;58328.31;5072543;28;20044;-67
2022/01/14 04:19:56;;;;;;;9.73;4.45;;;;;;;-148.16;100.00;58328.31;5056425;28;20048;-68
2022/01/14 04:22:42;;;;;;;11.57;5.40;;;;;;;-148.16;100.00;58328.31;5072469;28;20044;-68
2022/01/14 04:25:28;;;;;;;13.02;4.45;;;;;;;-148.16;100.00;58328.31;5072647;28;20052;-68
2022/01/14 04:28:14;;;;;;;13.05;5.22;;;;;;;-148.16;100.00;58328.31;5057986;28;20044;-68
2022/01/14 04:31:01;;;;;;;11.77;4.68;;;;;;;-148.16;100.00;58328.31;5073080;28;20052;-68
2022/01/14 04:33:46;;;;;;;13.25;5.50;;;;;;;-148.16;100.00;58328.31;5063508;28;20041;-66
2022/01/14 04:36:33;;;;;;;12.75;4.30;;;;;;;-148.16;100.00;58328.31;5072885;28;20052;-66
2022/01/14 04:39:18;;;;;;;13.77;5.10;;;;;;;-148.16;100.00;58328.31;5072761;28;20044;-67
2022/01/14 04:42:05;;;;;;;14.50;5.47;;;;;;;-148.16;100.00;58328.31;5063808;28;20065;-67
2022/01/14 04:44:54;;;;;;;13.15;5.53;;;;;;;-148.16;100.00;58328.31;5077643;28;20048;-67
2022/01/14 04:47:45;;;;;;;11.98;5.22;;;;;;;-148.16;100.00;58328.31;5092950;28;20039;-67
2022/01/14 04:50:31;;;;;;;11.27;4.70;;;;;;;-148.16;100.00;58328.31;5092569;28;20044;-67
2022/01/14 04:53:18;;;;;;;14.35;5.10;;;;;;;-148.16;100.00;58328.31;5063542;28;20460;-68
2022/01/14 04:56:04;;;;;;;13.68;5.53;;;;;;;-148.16;100.00;58328.31;5098703;28;20495;-67
2022/01/14 04:58:49;;;;;;;15.63;5.60;;;;;;;-148.16;100.00;58328.31;5092793;28;20040;-67
2022/01/14 05:01:35;;;;;;;15.57;5.30;;;;;;;-148.16;100.00;58328.31;5077524;28;20040;-67
2022/01/14 05:04:21;;;;;;;12.90;5.10;;;;;;;-148.16;100.00;58328.31;5092886;28;20475;-66
2022/01/14 05:07:11;;;;;;;11.50;4.82;;;;;;;-148.16;100.00;58328.31;5076191;28;20499;-67
2022/01/14 05:12:49;;;;;;;14.30;4.82;;;;;;;-148.16;100.00;58328.31;5092574;28;20435;-67
2022/01/14 05:15:35;;;;;;;12.70;5.38;;;;;;;-148.16;100.00;58328.31;5076957;28;20051;-68
2022/01/14 05:18:22;;;;;;;14.57;5.15;;;;;;;-148.16;100.00;58328.31;5092302;28;20048;-67
2022/01/14 05:21:08;;;;;;;14.10;5.18;;;;;;;-148.16;100.00;58328.31;5088976;28;20040;-66
2022/01/14 05:23:56;;;;;;;14.85;5.55;;;;;;;-148.16;100.00;58328.31;5084135;28;20049;-66
2022/01/14 05:26:41;;;;;;;12.07;5.03;;;;;;;-148.16;100.00;58328.31;5046066;28;20392;-65
2022/01/14 05:29:27;;;;;;;11.52;4.25;;;;;;;-148.16;100.00;58328.31;5089796;28;20047;-65
2022/01/14 05:32:15;;;;;;;15.18;4.68;;;;;;;-148.16;100.00;58328.31;5090744;28;20044;-67
2022/01/14 05:35:01;;;;;;;12.05;4.35;;;;;;;-148.16;100.00;58328.31;5075405;28;20044;-66
2022/01/14 05:37:47;;;;;;;12.00;4.80;;;;;;;-148.16;100.00;58328.31;5090847;28;20048;-65
2022/01/14 05:40:34;;;;;;;11.25;4.55;;;;;;;-148.16;100.00;58328.31;5075053;28;20048;-67
2022/01/14 05:43:19;;;;;;;12.10;4.63;;;;;;;-148.16;100.00;58328.31;5090420;28;20044;-67
2022/01/14 05:46:05;;;;;;;10.77;4.93;;;;;;;-148.16;100.00;58328.31;5090522;28;20040;-68
2022/01/14 05:48:50;;;;;;;13.48;4.85;;;;;;;-148.16;100.00;58328.31;5090658;28;20044;-69
2022/01/14 05:51:36;;;;;;;12.23;4.53;;;;;;;-148.16;100.00;58328.31;5090553;28;20403;-66
2022/01/14 05:54:23;;;;;;;12.43;4.00;;;;;;;-148.16;100.00;58328.31;5090491;28;20040;-68
2022/01/14 05:57:08;;;;;;;10.18;4.20;;;;;;;-148.16;100.00;58328.31;5083785;28;20049;-67
2022/01/14 05:59:54;;;;;;;12.18;5.22;;;;;;;-148.16;100.00;58328.31;5066120;28;20040;-63
2022/01/14 06:02:40;;;;;;;10.93;4.72;;;;;;;-148.16;100.00;58328.31;5091596;28;20036;-63
2022/01/14 06:05:26;;;;;;;14.13;4.45;;;;;;;-148.16;100.00;58328.31;5091530;28;20475;-63
2022/01/14 06:08:12;;;;;;;15.38;5.28;;;;;;;-148.16;100.00;58328.31;5091572;28;20483;-63
2022/01/14 06:10:58;;;;;;;12.27;4.90;;;;;;;-148.16;100.00;58328.31;5091404;28;20422;-62
2022/01/14 06:13:44;;;;;;;12.95;4.93;;;;;;;-148.16;100.00;58328.31;5091406;28;20044;-61
2022/01/14 06:16:30;;;;;;;11.70;4.78;;;;;;;-148.16;100.00;58328.31;5091411;28;20044;-63
2022/01/14 06:19:15;;;;;;;10.98;4.45;;;;;;;-148.16;100.00;58328.31;5091219;28;20052;-63
2022/01/14 06:22:01;;;;;;;12.20;5.15;;;;;;;-148.16;100.00;58328.31;5091365;28;20040;-64
2022/01/14 06:24:47;;;;;;;12.32;4.40;;;;;;;-148.16;100.00;58328.31;5091363;28;20459;-62
2022/01/14 06:27:33;;;;;;;13.85;5.20;;;;;;;-148.16;100.00;58328.31;5076240;28;20407;-62
2022/01/14 06:30:19;;;;;;;12.07;4.13;;;;;;;-148.16;100.00;58328.31;5091671;28;20413;-63
2022/01/14 06:33:04;;;;;;;15.70;5.72;;;;;;;-148.16;100.00;58328.31;5095129;28;20044;-63
2022/01/14 06:35:51;;;;;;;11.80;3.88;;;;;;;-148.16;100.00;58328.31;5079214;28;20483;-60
2022/01/14 06:38:37;;;;;;;19.75;4.97;;;;;;;-148.16;100.00;58328.31;5094180;28;20052;-62
2022/01/14 06:41:23;;;;;;;12.15;4.78;;;;;;;-148.16;100.00;58328.31;5093741;28;20040;-63
2022/01/14 06:44:09;;;;;;;13.38;4.50;;;;;;;-148.16;100.00;58328.31;5093983;28;20040;-63
2022/01/14 06:46:55;;;;;;;15.00;5.65;;;;;;;-148.16;100.00;58328.31;5094593;28;20043;-63
2022/01/14 06:49:41;;;;;;;11.90;4.50;;;;;;;-148.16;100.00;58328.31;5079462;28;20040;-63
2022/01/14 06:52:27;;;;;;;7.70;2.83;;;;;;;-148.16;100.00;58328.31;5079467;28;20048;-64
2022/01/14 06:55:13;;;;;;;9.48;3.72;;;;;;;-148.16;100.00;58328.31;5094514;28;20391;-63
2022/01/14 06:57:58;;;;;;;13.15;4.22;;;;;;;-148.16;100.00;58328.31;5094573;28;20044;-62
2022/01/14 07:00:44;;;;;;;13.82;5.30;;;;;;;-148.16;100.00;58328.31;5094602;28;20040;-61
2022/01/14 07:03:29;;;;;;;17.35;6.55;;;;;;;-148.16;100.00;58328.31;5075345;28;20036;-63
2022/01/14 07:06:15;;;;;;;15.93;5.90;;;;;;;-148.16;100.00;58328.31;5074289;28;20052;-64
2022/01/14 07:09:01;;;;;;;11.05;4.57;;;;;;;-148.16;100.00;58328.31;5059133;28;20044;-61
2022/01/14 07:11:52;;;;;;;10.73;4.57;;;;;;;-148.16;100.00;58328.31;5073982;28;20149;-62
2022/01/14 07:14:38;;;;;;;11.98;4.32;;;;;;;-148.16;100.00;58328.31;5073631;28;20052;-64
2022/01/14 07:17:25;;;;;;;11.23;4.53;;;;;;;-148.16;100.00;58328.31;5074283;28;20057;-64
2022/01/14 07:20:14;;;;;;;13.55;4.25;;;;;;;-148.16;100.00;58328.31;5074202;28;20058;-63
2022/01/14 07:23:00;;;;;;;12.07;4.57;;;;;;;-148.16;100.00;58328.31;5073978;28;20430;-62
2022/01/14 07:25:46;;;;;;;12.85;5.32;;;;;;;-148.16;100.00;58328.31;5073428;28;20487;-62
2022/01/14 07:28:31;;;;;;;15.55;5.90;;;;;;;-148.16;100.00;58328.31;5073647;28;20036;-61
2022/01/14 07:31:17;;;;;;;13.88;5.20;;;;;;;-148.16;100.00;58328.31;5087259;28;20044;-64
2022/01/14 07:34:03;;;;;;;11.60;4.20;;;;;;;-148.16;100.00;58328.31;5058485;28;20730;-62
2022/01/14 07:36:48;;;;;;;10.00;4.03;;;;;;;-148.16;100.00;58328.31;5094521;28;20044;-62
2022/01/14 07:39:34;;;;;;;9.40;3.90;;;;;;;-148.16;100.00;58328.31;5095974;28;20044;-62
2022/01/14 07:42:20;;;;;;;10.68;3.90;;;;;;;-148.16;100.00;58328.31;5081233;28;20040;-62
2022/01/14 07:45:06;;;;;;;10.45;3.83;;;;;;;-148.16;100.00;58328.31;5099285;28;20047;-63
2022/01/14 07:47:52;;;;;;;7.18;3.40;;;;;;;-148.16;100.00;58328.31;5072939;28;20036;-68
2022/01/14 07:50:38;;;;;;;7.50;3.65;;;;;;;-148.16;100.00;58328.31;5082857;28;20044;-66
2022/01/14 07:53:24;;;;;;;5.10;2.70;;;;;;;-148.16;100.00;58328.31;5072146;28;20040;-66
2022/01/14 07:56:12;;;;;;;10.27;3.50;;;;;;;-148.16;100.00;58328.31;5084384;28;20143;-66
2022/01/14 07:58:58;;;;;;;8.30;3.78;;;;;;;-148.16;100.00;58328.31;5072493;28;20041;-64
2022/01/14 08:01:45;;;;;;;9.55;3.78;;;;;;;-148.16;100.00;58328.31;5070395;28;20052;-64
2022/01/14 08:04:36;;;;;;;8.75;3.45;;;;;;;-148.16;100.00;58328.31;5093246;28;20044;-67
2022/01/14 08:07:23;;;;;;;11.13;4.28;;;;;;;-148.16;100.00;58328.31;5063924;28;20403;-66
2022/01/14 08:10:09;;;;;;;9.15;3.83;;;;;;;-148.16;100.00;58328.31;5076032;28;20048;-66
2022/01/14 08:12:55;;;;;;;11.50;3.65;;;;;;;-148.16;100.00;58328.31;5073060;28;20432;-66
2022/01/14 08:15:41;;;;;;;10.38;3.75;;;;;;;-148.16;100.00;58328.31;5062134;28;20103;-68
2022/01/14 08:18:28;;;;;;;10.68;4.35;;;;;;;-148.16;100.00;58328.31;5077822;28;20068;-66
2022/01/14 08:21:17;;;;;;;9.13;3.95;;;;;;;-148.16;100.00;58328.31;5093114;28;20048;-66
2022/01/14 08:24:03;;;;;;;11.23;4.55;;;;;;;-148.16;100.00;58328.31;5069471;28;20044;-66
2022/01/14 08:26:48;;;;;;;11.27;3.90;;;;;;;-148.16;100.00;58328.31;5092230;28;20044;-66
2022/01/14 08:29:35;;;;;;;8.68;4.03;;;;;;;-148.16;100.00;58328.31;5076886;28;20419;-65
2022/01/14 08:32:24;;;;;;;15.10;5.20;;;;;;;-148.16;100.00;58328.31;5092109;28;20475;-66
2022/01/14 08:35:10;;;;;;;12.77;4.88;;;;;;;-148.16;100.00;58328.31;5091926;28;20040;-66
2022/01/14 08:37:56;;;;;;;9.77;4.20;;;;;;;-148.16;100.00;58328.31;5076715;28;20048;-66
2022/01/14 08:40:42;;;;;;;11.18;4.15;;;;;;;-148.16;100.00;58328.31;5093170;28;20048;-66
2022/01/14 08:43:28;;;;;;;11.50;4.85;;;;;;;-148.16;100.00;58328.31;5092675;28;20395;-66
2022/01/14 08:46:14;;;;;;;10.40;5.13;;;;;;;-148.16;100.00;58328.31;5092873;28;20044;-66
2022/01/14 08:49:01;;;;;;;11.23;4.78;;;;;;;-148.16;100.00;58328.31;5077448;28;20480;-66
2022/01/14 08:51:48;;;;;;;11.05;4.65;;;;;;;-148.16;100.00;58328.31;5077210;28;20048;-66
2022/01/14 08:54:34;;;;;;;8.95;4.15;;;;;;;-148.16;100.00;58328.31;5091853;28;20048;-66
2022/01/14 08:57:19;;;;;;;10.15;4.40;;;;;;;-148.16;100.00;58328.31;5092363;28;20047;-66
2022/01/14 09:00:06;;;;;;;11.20;4.72;;;;;;;-148.16;100.00;58328.31;5092500;28;20048;-67
2022/01/14 09:02:53;;;;;;;9.52;4.15;;;;;;;-148.16;100.00;58328.31;5092483;28;20060;-66
2022/01/14 09:05:38;;;;;;;8.60;3.83;;;;;;;-148.16;100.00;58328.31;5077037;28;20044;-67
2022/01/14 09:08:24;;;;;;;9.82;4.18;;;;;;;-148.16;100.00;58328.31;5092258;28;20032;-67
2022/01/14 09:11:10;;;;;;;10.43;4.35;;;;;;;-148.16;100.00;58328.31;5092469;28;20420;-66
2022/01/14 09:13:55;;;;;;;9.77;4.63;;;;;;;-148.16;100.00;58328.31;5092254;28;20040;-66
2022/01/14 09:16:41;;;;;;;8.02;3.40;;;;;;;-148.16;100.00;58328.31;5065922;28;20410;-66
2022/01/14 09:19:27;;;;;;;9.10;3.83;;;;;;;-148.16;100.00;58328.31;5082844;28;20480;-66
2022/01/14 09:22:18;;;;;;;8.65;4.18;;;;;;;-148.16;100.00;58328.31;5083123;28;20040;-65
2022/01/14 09:25:06;;;;;;;9.77;4.22;;;;;;;-148.16;100.00;58328.31;5069415;28;20403;-66
2022/01/14 09:27:53;;;;;;;11.52;4.50;;;;;;;-148.16;100.00;58328.31;5092035;28;20044;-67
2022/01/14 09:30:38;;;;;;;9.30;4.53;;;;;;;-148.16;100.00;58328.31;5076603;28;20048;-67
2022/01/14 09:33:24;;;;;;;12.10;5.15;;;;;;;-148.16;100.00;58328.31;5076761;28;20089;-66
2022/01/14 09:36:12;;;;;;;11.93;4.63;;;;;;;-148.16;100.00;58328.31;5092068;28;20044;-66
2022/01/14 09:38:59;;;;;;;9.75;5.07;;;;;;;-148.16;100.00;58328.31;5082605;28;20407;-66
2022/01/14 09:41:46;;;;;;;12.15;5.38;;;;;;;-148.16;100.00;58328.31;5091833;28;20048;-67
2022/01/14 09:44:32;;;;;;;11.70;5.35;;;;;;;-148.16;100.00;58328.31;5091797;28;20044;-65
2022/01/14 09:47:20;;;;;;;10.88;4.32;;;;;;;-148.16;100.00;58328.31;5091662;28;20150;-66
2022/01/14 09:50:06;;;;;;;9.73;5.13;;;;;;;-148.16;100.00;58328.31;5091908;28;20048;-66
2022/01/14 09:52:52;;;;;;;12.95;4.90;;;;;;;-148.16;100.00;58328.31;5076898;28;20423;-66
2022/01/14 09:55:38;;;;;;;8.07;3.97;;;;;;;-148.16;100.00;58328.31;5092391;28;20044;-66
2022/01/14 09:58:26;;;;;;;11.25;4.80;;;;;;;-148.16;100.00;58328.31;5092074;28;20052;-66
2022/01/14 10:01:16;;;;;;;10.68;4.70;;;;;;;-148.16;100.00;58328.31;5077118;28;20499;-65
2022/01/14 10:04:02;;;;;;;12.10;6.07;;;;;;;-148.16;100.00;58328.31;5092757;28;20056;-65
2022/01/14 10:06:54;;;;;;;11.57;5.53;;;;;;;-148.16;100.00;58328.31;5079577;28;20419;-65
2022/01/14 10:09:43;;;;;;;11.10;5.13;;;;;;;-148.16;100.00;58328.31;5080367;28;20478;-67
2022/01/14 10:12:33;;;;;;;12.65;5.55;;;;;;;-148.16;100.00;58328.31;5095498;28;20403;-67
2022/01/14 10:15:21;;;;;;;11.20;5.28;;;;;;;-148.16;100.00;58328.31;5080716;28;20143;-66
2022/01/14 10:18:06;;;;;;;12.30;5.72;;;;;;;-148.16;100.00;58328.31;5055814;28;20056;-66
2022/01/14 10:20:52;;;;;;;11.85;4.95;;;;;;;-148.16;100.00;58328.31;5060071;28;20045;-66
2022/01/14 10:23:52;;;;;;;12.93;5.05;;;;;;;-148.16;100.00;58328.31;5046120;28;20408;-66
2022/01/14 10:26:52;;;;;;;13.23;5.45;;;;;;;-148.16;100.00;58328.31;5054008;28;20079;-66
2022/01/14 10:29:39;;;;;;;14.07;6.07;;;;;;;-148.16;100.00;58328.31;5054037;28;20052;-65
2022/01/14 10:32:31;;;;;;;9.15;4.75;;;;;;;-148.16;100.00;58328.31;5053922;28;20045;-66
2022/01/14 10:35:18;;;;;;;;;;;;;;;-148.16;100.00;58328.31;5055838;28;20049;-66
2022/01/14 10:38:06;;;;;;;13.75;5.30;;;;;;;-148.16;100.00;58328.31;5053797;28;19912;-66
2022/01/14 10:40:55;;;;;;;12.85;5.78;;;;;;;-148.16;100.00;58328.31;5053699;28;20048;-66
2022/01/14 10:43:41;;;;;;;13.77;5.22;;;;;;;-148.16;100.00;58328.31;5054648;28;20049;-66
2022/01/14 10:46:30;;;;;;;12.05;5.20;;;;;;;-148.16;100.00;58328.31;5058156;28;20484;-65
2022/01/14 10:49:34;;;;;;;14.07;6.13;;;;;;;-148.16;100.00;58328.31;5054927;28;20056;-67
2022/01/14 10:52:23;;;;;;;16.73;5.38;;;;;;;-148.16;100.00;58328.31;5053512;28;20086;-66
2022/01/14 10:55:09;;;;;;;12.65;5.47;;;;;;;-148.16;100.00;58328.31;5054367;28;20045;-65
2022/01/14 10:57:55;;;;;;;15.35;6.15;;;;;;;-148.16;100.00;58328.31;5054465;28;20052;-65
2022/01/14 11:00:44;;;;;;;12.73;5.32;;;;;;;-148.16;100.00;58328.31;5054120;28;20041;-65
2022/01/14 11:03:42;;;;;;;16.08;6.35;;;;;;;-148.16;100.00;58328.31;5053325;28;20053;-65
2022/01/14 11:06:30;;;;;;;12.20;5.38;;;;;;;-148.16;100.00;58328.31;5053215;28;20045;-64
2022/01/14 11:09:22;;;;;;;12.60;5.20;;;;;;;-148.16;100.00;58328.31;5054224;28;20037;-65
2022/01/14 11:12:08;;;;;;;;;;;;;;;-148.16;100.00;58328.31;5054416;28;20037;-66
2022/01/14 11:15:15;;;;;;;12.68;5.22;;;;;;;-148.16;100.00;58328.31;5052084;28;19912;-64
2022/01/14 11:18:05;;;;;;;10.93;4.25;;;;;;;-148.16;100.00;58328.31;5031538;28;20054;-65
2022/01/14 11:24:04;;;;;;;14.15;5.40;;;;;;;-148.16;100.00;58328.31;5031886;28;20081;-65
2022/01/14 11:26:53;;;;;;;14.50;5.43;;;;;;;-148.16;100.00;58328.31;5031918;28;20049;-65
2022/01/14 11:29:42;;;;;;;10.68;4.45;;;;;;;-148.16;100.00;58328.31;5031730;28;20049;-64
2022/01/14 11:32:28;;;;;;;12.75;5.35;;;;;;;-148.16;100.00;58328.31;5031610;28;20045;-65
2022/01/14 11:35:25;;;;;;;10.43;4.43;;;;;;;-148.16;100.00;58328.31;5031667;28;20061;-64
2022/01/14 11:38:36;;;;;;;11.30;4.45;;;;;;;-148.16;100.00;58328.31;5031686;28;20447;-65
2022/01/14 11:41:53;;;;;;;8.80;4.25;;;;;;;-148.16;100.00;58328.31;5031674;28;20041;-64
2022/01/14 11:44:42;;;;;;;11.80;4.15;;;;;;;-148.16;100.00;58328.31;5051351;28;20049;-64
2022/01/14 11:47:28;;;;;;;10.18;4.55;;;;;;;-148.16;100.00;58328.31;5052417;28;20428;-64
2022/01/14 11:50:21;;;;;;;8.05;3.95;;;;;;;-148.16;100.00;58328.31;5058290;28;20041;-65
2022/01/14 11:53:35;;;;;;;8.77;4.35;;;;;;;-148.16;100.00;58328.31;5053116;28;20060;-65
2022/01/14 11:56:30;;;;;;;11.90;4.45;;;;;;;-148.16;100.00;58328.31;5086988;28;20041;-64
2022/01/14 11:59:20;;;;;;;10.55;4.25;;;;;;;-148.16;100.00;58328.31;5058029;28;20049;-64
2022/01/14 12:02:27;;;;;;;9.70;4.30;;;;;;;-148.16;100.00;58328.31;5052289;28;20420;-65
2022/01/14 12:05:16;;;;;;;9.20;3.92;;;;;;;-148.16;100.00;58328.31;5052503;28;20048;-65
2022/01/14 12:08:04;;;;;;;8.37;3.70;;;;;;;-148.16;100.00;58328.31;5059058;28;20037;-65
2022/01/14 12:11:05;;;;;;;8.23;4.03;;;;;;;-148.16;100.00;58328.31;5052003;28;20053;-65
2022/01/14 12:14:01;;;;;;;9.90;4.30;;;;;;;-148.16;100.00;58328.31;5051627;28;20045;-65
2022/01/14 12:17:10;;;;;;;7.10;3.13;;;;;;;-148.16;100.00;58328.31;5067015;28;20462;-64
2022/01/14 12:19:56;;;;;;;7.50;3.15;;;;;;;-148.16;100.00;58328.31;5072893;28;20404;-63
2022/01/14 12:23:05;;;;;;;6.38;3.17;;;;;;;-148.16;100.00;58328.31;5057624;28;20036;-64
2022/01/14 12:25:53;;;;;;;8.35;3.15;;;;;;;-148.16;100.00;58328.31;5057710;28;20049;-64
2022/01/14 12:28:39;;;;;;;6.25;2.70;;;;;;;-148.16;100.00;58328.31;5048833;28;20044;-64
2022/01/14 12:31:24;;;;;;;7.82;3.00;;;;;;;-148.16;100.00;58328.31;5071359;28;20052;-64
2022/01/14 12:34:10;;;;;;;7.43;2.83;;;;;;;-148.16;100.00;58328.31;5072385;28;20044;-64
2022/01/14 12:36:56;;;;;;;4.35;2.25;;;;;;;-148.16;100.00;58328.31;5072565;28;20044;-64
2022/01/14 12:39:46;;;;;;;5.13;2.50;;;;;;;-148.16;100.00;58328.31;5072680;28;20060;-64
2022/01/14 12:42:32;;;;;;;7.93;3.20;;;;;;;-148.16;100.00;58328.31;5082245;28;20044;-64
2022/01/14 12:45:28;;;;;;;6.63;2.50;;;;;;;-148.16;100.00;58328.31;5077727;28;20040;-64
2022/01/14 12:48:37;;;;;;;6.57;2.80;;;;;;;-148.16;100.00;58328.31;5093018;28;20147;-64
2022/01/14 12:51:22;;;;;;;6.45;3.05;;;;;;;-148.16;100.00;58328.31;5092618;28;20047;-63
2022/01/14 12:54:10;;;;;;;8.88;3.08;;;;;;;-148.16;100.00;58328.31;5077111;28;20044;-64
2022/01/14 12:56:57;;;;;;;8.95;3.28;;;;;;;-148.16;100.00;58328.31;5092491;28;20040;-64
2022/01/14 12:59:49;;;;;;;5.20;2.53;;;;;;;-148.16;100.00;58328.31;5069103;28;20047;-64
2022/01/14 13:02:35;;;;;;;5.35;2.30;;;;;;;-148.16;100.00;58328.31;5092334;28;20044;-65
2022/01/14 13:05:24;;;;;;;6.07;2.83;;;;;;;-148.16;100.00;58328.31;5077286;28;20051;-64
2022/01/14 13:08:10;;;;;;;6.00;2.90;;;;;;;-148.16;100.00;58328.31;5076683;28;20040;-63